sensor_id;sensor_type;location;lat;lon;timestamp;P1;durP1;ratioP1;P2;durP2;ratioP2
54983;SDS011;40884;53.562;9.940;2023-08-06T00:00:28;3.40;;;2.23;;
54983;SDS011;40884;53.562;9.940;2023-08-06T00:01:28;2.10;;;1.90;;
54983;SDS011;40884;53.562;9.940;2023-08-06T00:02:28;2.07;;;1.87;;
54983;SDS011;40884;53.562;9.940;2023-08-06T00:03:28;2.83;;;2.17;;
54983;SDS011;40884;53.562;9.940;2023-08-06T00:04:28;2.30;;;2.07;;
54983;SDS011;40884;53.562;9.940;2023-08-06T00:05:28;2.47;;;2.00;;
54983;SDS011;40884;53.562;9.940;2023-08-06T00:06:28;2.37;;;2.17;;
54983;SDS011;40884;53.562;9.940;2023-08-06T00:07:28;2.63;;;2.30;;
54983;SDS011;40884;53.562;9.940;2023-08-06T00:08:29;3.63;;;2.50;;
54983;SDS011;40884;53.562;9.940;2023-08-06T00:09:29;2.00;;;1.90;;
54983;SDS011;40884;53.562;9.940;2023-08-06T00:10:29;3.00;;;2.70;;
54983;SDS011;40884;53.562;9.940;2023-08-06T00:11:29;2.53;;;2.20;;
54983;SDS011;40884;53.562;9.940;2023-08-06T00:12:29;2.50;;;2.30;;
54983;SDS011;40884;53.562;9.940;2023-08-06T00:13:29;3.07;;;2.20;;
54983;SDS011;40884;53.562;9.940;2023-08-06T00:14:29;2.80;;;2.60;;
54983;SDS011;40884;53.562;9.940;2023-08-06T00:15:29;2.20;;;1.97;;
54983;SDS011;40884;53.562;9.940;2023-08-06T00:16:29;3.27;;;2.73;;
54983;SDS011;40884;53.562;9.940;2023-08-06T00:17:30;2.43;;;2.23;;
54983;SDS011;40884;53.562;9.940;2023-08-06T00:18:30;2.70;;;2.30;;
54983;SDS011;40884;53.562;9.940;2023-08-06T00:19:31;2.80;;;2.50;;
54983;SDS011;40884;53.562;9.940;2023-08-06T00:20:31;3.77;;;2.70;;
54983;SDS011;40884;53.562;9.940;2023-08-06T00:21:31;5.50;;;2.90;;
54983;SDS011;40884;53.562;9.940;2023-08-06T00:22:32;3.33;;;2.97;;
54983;SDS011;40884;53.562;9.940;2023-08-06T00:23:32;3.80;;;2.70;;
54983;SDS011;40884;53.562;9.940;2023-08-06T00:24:32;3.73;;;2.80;;
54983;SDS011;40884;53.562;9.940;2023-08-06T00:25:33;2.57;;;2.37;;
54983;SDS011;40884;53.562;9.940;2023-08-06T00:26:33;3.03;;;2.60;;
54983;SDS011;40884;53.562;9.940;2023-08-06T00:27:33;2.90;;;2.50;;
54983;SDS011;40884;53.562;9.940;2023-08-06T00:28:33;2.93;;;2.40;;
54983;SDS011;40884;53.562;9.940;2023-08-06T00:29:33;2.70;;;2.50;;
54983;SDS011;40884;53.562;9.940;2023-08-06T00:30:33;2.70;;;2.47;;
54983;SDS011;40884;53.562;9.940;2023-08-06T00:31:33;2.70;;;2.50;;
54983;SDS011;40884;53.562;9.940;2023-08-06T00:32:34;2.93;;;2.60;;
54983;SDS011;40884;53.562;9.940;2023-08-06T00:33:34;2.73;;;2.50;;
54983;SDS011;40884;53.562;9.940;2023-08-06T00:34:34;3.17;;;2.20;;
54983;SDS011;40884;53.562;9.940;2023-08-06T00:35:34;2.20;;;2.00;;
54983;SDS011;40884;53.562;9.940;2023-08-06T00:36:34;2.50;;;2.30;;
54983;SDS011;40884;53.562;9.940;2023-08-06T00:37:34;2.87;;;2.10;;
54983;SDS011;40884;53.562;9.940;2023-08-06T00:38:35;2.37;;;2.17;;
54983;SDS011;40884;53.562;9.940;2023-08-06T00:39:35;2.60;;;2.27;;
54983;SDS011;40884;53.562;9.940;2023-08-06T00:40:35;2.77;;;2.40;;
54983;SDS011;40884;53.562;9.940;2023-08-06T00:41:35;3.47;;;2.50;;
54983;SDS011;40884;53.562;9.940;2023-08-06T00:42:35;3.90;;;2.43;;
54983;SDS011;40884;53.562;9.940;2023-08-06T00:43:35;2.43;;;2.10;;
54983;SDS011;40884;53.562;9.940;2023-08-06T00:44:36;3.00;;;2.10;;
54983;SDS011;40884;53.562;9.940;2023-08-06T00:45:36;2.33;;;2.13;;
54983;SDS011;40884;53.562;9.940;2023-08-06T00:46:37;2.50;;;2.30;;
54983;SDS011;40884;53.562;9.940;2023-08-06T00:47:37;2.73;;;2.10;;
54983;SDS011;40884;53.562;9.940;2023-08-06T00:48:37;2.40;;;2.20;;
54983;SDS011;40884;53.562;9.940;2023-08-06T00:49:37;2.53;;;2.20;;
54983;SDS011;40884;53.562;9.940;2023-08-06T00:50:38;2.23;;;2.03;;
54983;SDS011;40884;53.562;9.940;2023-08-06T00:51:38;2.20;;;1.97;;
54983;SDS011;40884;53.562;9.940;2023-08-06T00:52:39;2.00;;;1.90;;
54983;SDS011;40884;53.562;9.940;2023-08-06T00:53:39;2.40;;;2.20;;
54983;SDS011;40884;53.562;9.940;2023-08-06T00:54:39;2.43;;;2.23;;
54983;SDS011;40884;53.562;9.940;2023-08-06T00:55:40;2.40;;;2.20;;
54983;SDS011;40884;53.562;9.940;2023-08-06T00:56:40;2.43;;;2.10;;
54983;SDS011;40884;53.562;9.940;2023-08-06T00:57:41;2.40;;;2.20;;
54983;SDS011;40884;53.562;9.940;2023-08-06T00:58:41;3.37;;;2.50;;
54983;SDS011;40884;53.562;9.940;2023-08-06T00:59:42;2.37;;;2.17;;
54983;SDS011;40884;53.562;9.940;2023-08-06T01:00:43;3.43;;;2.37;;
54983;SDS011;40884;53.562;9.940;2023-08-06T01:01:43;2.60;;;2.40;;
54983;SDS011;40884;53.562;9.940;2023-08-06T01:02:43;3.30;;;2.87;;
54983;SDS011;40884;53.562;9.940;2023-08-06T01:03:44;3.10;;;2.80;;
54983;SDS011;40884;53.562;9.940;2023-08-06T01:04:44;3.20;;;2.60;;
54983;SDS011;40884;53.562;9.940;2023-08-06T01:05:44;3.70;;;2.53;;
54983;SDS011;40884;53.562;9.940;2023-08-06T01:06:48;2.77;;;2.40;;
54983;SDS011;40884;53.562;9.940;2023-08-06T01:07:56;2.53;;;2.30;;
54983;SDS011;40884;53.562;9.940;2023-08-06T01:09:02;3.73;;;2.73;;
54983;SDS011;40884;53.562;9.940;2023-08-06T01:10:14;2.93;;;2.73;;
54983;SDS011;40884;53.562;9.940;2023-08-06T01:12:41;2.63;;;2.40;;
54983;SDS011;40884;53.562;9.940;2023-08-06T01:13:43;2.83;;;2.63;;
54983;SDS011;40884;53.562;9.940;2023-08-06T01:14:51;2.53;;;2.30;;
54983;SDS011;40884;53.562;9.940;2023-08-06T01:15:54;2.77;;;2.40;;
54983;SDS011;40884;53.562;9.940;2023-08-06T01:16:55;2.60;;;2.40;;
54983;SDS011;40884;53.562;9.940;2023-08-06T01:17:57;2.93;;;2.73;;
54983;SDS011;40884;53.562;9.940;2023-08-06T01:18:58;2.77;;;2.50;;
54983;SDS011;40884;53.562;9.940;2023-08-06T01:19:58;2.70;;;2.50;;
54983;SDS011;40884;53.562;9.940;2023-08-06T01:20:58;2.60;;;2.40;;
54983;SDS011;40884;53.562;9.940;2023-08-06T01:21:58;2.73;;;2.43;;
54983;SDS011;40884;53.562;9.940;2023-08-06T01:22:59;3.10;;;2.80;;
54983;SDS011;40884;53.562;9.940;2023-08-06T01:23:59;2.90;;;2.60;;
54983;SDS011;40884;53.562;9.940;2023-08-06T01:24:59;3.03;;;2.73;;
54983;SDS011;40884;53.562;9.940;2023-08-06T01:26:13;4.10;;;3.03;;
54983;SDS011;40884;53.562;9.940;2023-08-06T01:27:17;2.97;;;2.67;;
54983;SDS011;40884;53.562;9.940;2023-08-06T01:28:35;2.90;;;2.70;;
54983;SDS011;40884;53.562;9.940;2023-08-06T01:29:39;3.70;;;2.93;;
54983;SDS011;40884;53.562;9.940;2023-08-06T01:30:41;3.07;;;2.77;;
54983;SDS011;40884;53.562;9.940;2023-08-06T01:31:43;3.00;;;2.70;;
54983;SDS011;40884;53.562;9.940;2023-08-06T01:32:44;3.57;;;3.27;;
54983;SDS011;40884;53.562;9.940;2023-08-06T01:33:45;3.97;;;2.53;;
54983;SDS011;40884;53.562;9.940;2023-08-06T01:34:45;3.20;;;2.90;;
54983;SDS011;40884;53.562;9.940;2023-08-06T01:35:47;3.30;;;3.00;;
54983;SDS011;40884;53.562;9.940;2023-08-06T01:36:48;2.80;;;2.57;;
54983;SDS011;40884;53.562;9.940;2023-08-06T01:37:48;3.50;;;2.60;;
54983;SDS011;40884;53.562;9.940;2023-08-06T01:38:50;3.00;;;2.70;;
54983;SDS011;40884;53.562;9.940;2023-08-06T01:39:52;3.07;;;2.70;;
54983;SDS011;40884;53.562;9.940;2023-08-06T01:40:52;3.13;;;2.93;;
54983;SDS011;40884;53.562;9.940;2023-08-06T01:41:52;3.53;;;2.70;;
54983;SDS011;40884;53.562;9.940;2023-08-06T01:42:52;3.40;;;3.10;;
54983;SDS011;40884;53.562;9.940;2023-08-06T01:43:53;3.63;;;3.00;;
54983;SDS011;40884;53.562;9.940;2023-08-06T01:44:53;3.90;;;3.30;;
54983;SDS011;40884;53.562;9.940;2023-08-06T01:45:53;3.30;;;3.00;;
54983;SDS011;40884;53.562;9.940;2023-08-06T01:46:53;3.40;;;3.07;;
54983;SDS011;40884;53.562;9.940;2023-08-06T01:47:53;2.93;;;2.73;;
54983;SDS011;40884;53.562;9.940;2023-08-06T01:48:53;3.30;;;3.00;;
54983;SDS011;40884;53.562;9.940;2023-08-06T01:49:53;4.53;;;2.90;;
54983;SDS011;40884;53.562;9.940;2023-08-06T01:50:54;3.10;;;2.83;;
54983;SDS011;40884;53.562;9.940;2023-08-06T01:51:54;3.33;;;3.03;;
54983;SDS011;40884;53.562;9.940;2023-08-06T01:52:54;3.53;;;3.10;;
54983;SDS011;40884;53.562;9.940;2023-08-06T01:53:54;3.37;;;2.80;;
54983;SDS011;40884;53.562;9.940;2023-08-06T01:54:54;4.53;;;3.43;;
54983;SDS011;40884;53.562;9.940;2023-08-06T01:55:54;3.63;;;3.10;;
54983;SDS011;40884;53.562;9.940;2023-08-06T01:56:55;4.00;;;3.30;;
54983;SDS011;40884;53.562;9.940;2023-08-06T01:57:55;3.50;;;3.20;;
54983;SDS011;40884;53.562;9.940;2023-08-06T01:58:55;4.70;;;3.13;;
54983;SDS011;40884;53.562;9.940;2023-08-06T01:59:55;3.60;;;3.30;;
54983;SDS011;40884;53.562;9.940;2023-08-06T02:00:55;3.97;;;3.50;;
54983;SDS011;40884;53.562;9.940;2023-08-06T02:01:56;3.60;;;3.23;;
54983;SDS011;40884;53.562;9.940;2023-08-06T02:02:56;4.50;;;3.30;;
54983;SDS011;40884;53.562;9.940;2023-08-06T02:03:56;2.97;;;2.77;;
54983;SDS011;40884;53.562;9.940;2023-08-06T02:04:57;3.23;;;2.93;;
54983;SDS011;40884;53.562;9.940;2023-08-06T02:05:57;3.67;;;3.37;;
54983;SDS011;40884;53.562;9.940;2023-08-06T02:06:57;3.80;;;2.87;;
54983;SDS011;40884;53.562;9.940;2023-08-06T02:07:57;4.50;;;3.10;;
54983;SDS011;40884;53.562;9.940;2023-08-06T02:08:57;3.17;;;2.63;;
54983;SDS011;40884;53.562;9.940;2023-08-06T02:09:57;3.07;;;2.87;;
54983;SDS011;40884;53.562;9.940;2023-08-06T02:10:57;4.03;;;2.90;;
54983;SDS011;40884;53.562;9.940;2023-08-06T02:11:57;3.20;;;2.90;;
54983;SDS011;40884;53.562;9.940;2023-08-06T02:12:58;3.40;;;2.93;;
54983;SDS011;40884;53.562;9.940;2023-08-06T02:13:58;4.93;;;3.50;;
54983;SDS011;40884;53.562;9.940;2023-08-06T02:14:58;4.97;;;3.00;;
54983;SDS011;40884;53.562;9.940;2023-08-06T02:15:58;4.17;;;2.97;;
54983;SDS011;40884;53.562;9.940;2023-08-06T02:16:59;3.57;;;3.27;;
54983;SDS011;40884;53.562;9.940;2023-08-06T02:17:59;5.30;;;3.17;;
54983;SDS011;40884;53.562;9.940;2023-08-06T02:19:00;5.13;;;3.30;;
54983;SDS011;40884;53.562;9.940;2023-08-06T02:20:00;3.90;;;3.30;;
54983;SDS011;40884;53.562;9.940;2023-08-06T02:21:00;4.27;;;3.50;;
54983;SDS011;40884;53.562;9.940;2023-08-06T02:22:02;3.30;;;3.00;;
54983;SDS011;40884;53.562;9.940;2023-08-06T02:23:02;3.93;;;3.50;;
54983;SDS011;40884;53.562;9.940;2023-08-06T02:24:02;4.23;;;3.50;;
54983;SDS011;40884;53.562;9.940;2023-08-06T02:25:03;3.90;;;3.50;;
54983;SDS011;40884;53.562;9.940;2023-08-06T02:26:04;4.00;;;3.70;;
54983;SDS011;40884;53.562;9.940;2023-08-06T02:27:04;5.97;;;3.67;;
54983;SDS011;40884;53.562;9.940;2023-08-06T02:28:05;4.40;;;3.80;;
54983;SDS011;40884;53.562;9.940;2023-08-06T02:29:05;4.23;;;3.80;;
54983;SDS011;40884;53.562;9.940;2023-08-06T02:30:05;4.47;;;4.07;;
54983;SDS011;40884;53.562;9.940;2023-08-06T02:31:06;4.07;;;3.67;;
54983;SDS011;40884;53.562;9.940;2023-08-06T02:32:06;4.60;;;3.87;;
54983;SDS011;40884;53.562;9.940;2023-08-06T02:33:07;4.87;;;3.47;;
54983;SDS011;40884;53.562;9.940;2023-08-06T02:34:07;4.30;;;3.30;;
54983;SDS011;40884;53.562;9.940;2023-08-06T02:35:07;4.50;;;3.90;;
54983;SDS011;40884;53.562;9.940;2023-08-06T02:36:07;8.87;;;4.10;;
54983;SDS011;40884;53.562;9.940;2023-08-06T02:37:07;6.03;;;4.30;;
54983;SDS011;40884;53.562;9.940;2023-08-06T02:38:07;3.70;;;3.40;;
54983;SDS011;40884;53.562;9.940;2023-08-06T02:39:07;4.40;;;4.00;;
54983;SDS011;40884;53.562;9.940;2023-08-06T02:40:09;6.67;;;4.20;;
54983;SDS011;40884;53.562;9.940;2023-08-06T02:41:09;5.73;;;3.57;;
54983;SDS011;40884;53.562;9.940;2023-08-06T02:42:09;5.07;;;3.87;;
54983;SDS011;40884;53.562;9.940;2023-08-06T02:43:09;4.30;;;3.90;;
54983;SDS011;40884;53.562;9.940;2023-08-06T02:44:10;4.90;;;4.30;;
54983;SDS011;40884;53.562;9.940;2023-08-06T02:45:10;4.33;;;3.90;;
54983;SDS011;40884;53.562;9.940;2023-08-06T02:46:10;4.50;;;4.00;;
54983;SDS011;40884;53.562;9.940;2023-08-06T02:47:10;4.60;;;3.77;;
54983;SDS011;40884;53.562;9.940;2023-08-06T02:48:10;6.17;;;3.70;;
54983;SDS011;40884;53.562;9.940;2023-08-06T02:49:10;4.47;;;3.93;;
54983;SDS011;40884;53.562;9.940;2023-08-06T02:50:11;5.90;;;3.93;;
54983;SDS011;40884;53.562;9.940;2023-08-06T02:51:11;6.10;;;4.10;;
54983;SDS011;40884;53.562;9.940;2023-08-06T02:52:11;3.80;;;3.40;;
54983;SDS011;40884;53.562;9.940;2023-08-06T02:53:11;4.00;;;3.67;;
54983;SDS011;40884;53.562;9.940;2023-08-06T02:54:12;5.10;;;4.17;;
54983;SDS011;40884;53.562;9.940;2023-08-06T02:55:12;4.40;;;4.00;;
54983;SDS011;40884;53.562;9.940;2023-08-06T02:56:16;4.33;;;3.80;;
54983;SDS011;40884;53.562;9.940;2023-08-06T02:57:37;3.97;;;3.67;;
54983;SDS011;40884;53.562;9.940;2023-08-06T02:58:37;4.77;;;4.10;;
54983;SDS011;40884;53.562;9.940;2023-08-06T02:59:47;5.00;;;3.93;;
54983;SDS011;40884;53.562;9.940;2023-08-06T03:02:00;4.63;;;4.13;;
54983;SDS011;40884;53.562;9.940;2023-08-06T03:03:10;4.80;;;4.27;;
54983;SDS011;40884;53.562;9.940;2023-08-06T03:04:17;4.83;;;4.07;;
54983;SDS011;40884;53.562;9.940;2023-08-06T03:05:19;4.70;;;4.13;;
54983;SDS011;40884;53.562;9.940;2023-08-06T03:06:20;4.50;;;4.10;;
54983;SDS011;40884;53.562;9.940;2023-08-06T03:07:24;4.43;;;4.03;;
54983;SDS011;40884;53.562;9.940;2023-08-06T03:08:29;7.47;;;4.37;;
54983;SDS011;40884;53.562;9.940;2023-08-06T03:09:29;4.53;;;4.10;;
54983;SDS011;40884;53.562;9.940;2023-08-06T03:10:30;4.50;;;4.10;;
54983;SDS011;40884;53.562;9.940;2023-08-06T03:11:34;4.53;;;4.07;;
54983;SDS011;40884;53.562;9.940;2023-08-06T03:12:39;4.90;;;4.20;;
54983;SDS011;40884;53.562;9.940;2023-08-06T03:13:40;4.20;;;3.80;;
54983;SDS011;40884;53.562;9.940;2023-08-06T03:14:40;5.57;;;4.43;;
54983;SDS011;40884;53.562;9.940;2023-08-06T03:15:41;5.00;;;4.50;;
54983;SDS011;40884;53.562;9.940;2023-08-06T03:16:43;4.63;;;4.23;;
54983;SDS011;40884;53.562;9.940;2023-08-06T03:17:44;4.80;;;4.33;;
54983;SDS011;40884;53.562;9.940;2023-08-06T03:18:45;4.70;;;4.20;;
54983;SDS011;40884;53.562;9.940;2023-08-06T03:19:46;5.80;;;4.23;;
54983;SDS011;40884;53.562;9.940;2023-08-06T03:20:46;6.27;;;4.57;;
54983;SDS011;40884;53.562;9.940;2023-08-06T03:21:47;4.40;;;4.00;;
54983;SDS011;40884;53.562;9.940;2023-08-06T03:22:49;4.93;;;3.97;;
54983;SDS011;40884;53.562;9.940;2023-08-06T03:23:49;4.23;;;3.83;;
54983;SDS011;40884;53.562;9.940;2023-08-06T03:24:52;4.30;;;3.90;;
54983;SDS011;40884;53.562;9.940;2023-08-06T03:25:54;5.10;;;3.90;;
54983;SDS011;40884;53.562;9.940;2023-08-06T03:26:54;4.97;;;4.47;;
54983;SDS011;40884;53.562;9.940;2023-08-06T03:27:54;4.63;;;3.80;;
54983;SDS011;40884;53.562;9.940;2023-08-06T03:28:54;4.93;;;3.77;;
54983;SDS011;40884;53.562;9.940;2023-08-06T03:29:54;5.43;;;4.10;;
54983;SDS011;40884;53.562;9.940;2023-08-06T03:31:00;7.03;;;4.23;;
54983;SDS011;40884;53.562;9.940;2023-08-06T03:32:01;4.10;;;3.70;;
54983;SDS011;40884;53.562;9.940;2023-08-06T03:33:01;4.27;;;3.87;;
54983;SDS011;40884;53.562;9.940;2023-08-06T03:34:01;5.13;;;4.27;;
54983;SDS011;40884;53.562;9.940;2023-08-06T03:35:04;4.50;;;4.10;;
54983;SDS011;40884;53.562;9.940;2023-08-06T03:36:05;4.87;;;3.83;;
54983;SDS011;40884;53.562;9.940;2023-08-06T03:37:07;5.27;;;3.60;;
54983;SDS011;40884;53.562;9.940;2023-08-06T03:38:08;4.17;;;3.77;;
54983;SDS011;40884;53.562;9.940;2023-08-06T03:39:08;7.30;;;4.17;;
54983;SDS011;40884;53.562;9.940;2023-08-06T03:40:08;4.60;;;4.10;;
54983;SDS011;40884;53.562;9.940;2023-08-06T03:41:09;6.83;;;4.13;;
54983;SDS011;40884;53.562;9.940;2023-08-06T03:42:09;5.17;;;4.03;;
54983;SDS011;40884;53.562;9.940;2023-08-06T03:43:09;4.67;;;3.90;;
54983;SDS011;40884;53.562;9.940;2023-08-06T03:44:10;5.27;;;4.40;;
54983;SDS011;40884;53.562;9.940;2023-08-06T03:45:10;5.27;;;4.37;;
54983;SDS011;40884;53.562;9.940;2023-08-06T03:46:11;4.53;;;4.13;;
54983;SDS011;40884;53.562;9.940;2023-08-06T03:47:11;5.23;;;4.40;;
54983;SDS011;40884;53.562;9.940;2023-08-06T03:48:11;4.23;;;3.83;;
54983;SDS011;40884;53.562;9.940;2023-08-06T03:49:11;4.27;;;3.87;;
54983;SDS011;40884;53.562;9.940;2023-08-06T03:50:12;4.27;;;3.93;;
54983;SDS011;40884;53.562;9.940;2023-08-06T03:51:12;5.13;;;4.03;;
54983;SDS011;40884;53.562;9.940;2023-08-06T03:52:13;5.10;;;4.30;;
54983;SDS011;40884;53.562;9.940;2023-08-06T03:53:14;4.10;;;3.70;;
54983;SDS011;40884;53.562;9.940;2023-08-06T03:54:14;4.30;;;3.80;;
54983;SDS011;40884;53.562;9.940;2023-08-06T03:55:14;5.10;;;4.30;;
54983;SDS011;40884;53.562;9.940;2023-08-06T03:56:15;4.30;;;4.00;;
54983;SDS011;40884;53.562;9.940;2023-08-06T03:57:15;5.87;;;4.20;;
54983;SDS011;40884;53.562;9.940;2023-08-06T03:58:15;6.07;;;4.17;;
54983;SDS011;40884;53.562;9.940;2023-08-06T03:59:16;4.73;;;4.10;;
54983;SDS011;40884;53.562;9.940;2023-08-06T04:00:16;5.37;;;3.90;;
54983;SDS011;40884;53.562;9.940;2023-08-06T04:01:16;5.80;;;4.20;;
54983;SDS011;40884;53.562;9.940;2023-08-06T04:02:19;5.67;;;3.97;;
54983;SDS011;40884;53.562;9.940;2023-08-06T04:03:19;8.57;;;4.10;;
54983;SDS011;40884;53.562;9.940;2023-08-06T04:04:19;5.27;;;4.07;;
54983;SDS011;40884;53.562;9.940;2023-08-06T04:05:19;4.57;;;3.80;;
54983;SDS011;40884;53.562;9.940;2023-08-06T04:06:19;5.30;;;4.27;;
54983;SDS011;40884;53.562;9.940;2023-08-06T04:07:19;5.33;;;4.30;;
54983;SDS011;40884;53.562;9.940;2023-08-06T04:08:20;4.83;;;4.10;;
54983;SDS011;40884;53.562;9.940;2023-08-06T04:09:20;5.17;;;4.37;;
54983;SDS011;40884;53.562;9.940;2023-08-06T04:10:20;4.53;;;4.13;;
54983;SDS011;40884;53.562;9.940;2023-08-06T04:11:20;6.83;;;4.37;;
54983;SDS011;40884;53.562;9.940;2023-08-06T04:12:21;5.43;;;4.40;;
54983;SDS011;40884;53.562;9.940;2023-08-06T04:13:21;5.43;;;3.97;;
54983;SDS011;40884;53.562;9.940;2023-08-06T04:14:21;4.27;;;3.70;;
54983;SDS011;40884;53.562;9.940;2023-08-06T04:15:21;5.67;;;4.20;;
54983;SDS011;40884;53.562;9.940;2023-08-06T04:16:24;5.73;;;4.30;;
54983;SDS011;40884;53.562;9.940;2023-08-06T04:17:24;4.37;;;3.77;;
54983;SDS011;40884;53.562;9.940;2023-08-06T04:18:24;5.53;;;3.90;;
54983;SDS011;40884;53.562;9.940;2023-08-06T04:19:24;5.57;;;3.93;;
54983;SDS011;40884;53.562;9.940;2023-08-06T04:20:24;4.43;;;4.00;;
54983;SDS011;40884;53.562;9.940;2023-08-06T04:21:24;4.17;;;3.43;;
54983;SDS011;40884;53.562;9.940;2023-08-06T04:22:25;5.33;;;4.50;;
54983;SDS011;40884;53.562;9.940;2023-08-06T04:23:25;4.73;;;3.90;;
54983;SDS011;40884;53.562;9.940;2023-08-06T04:24:28;6.93;;;3.60;;
54983;SDS011;40884;53.562;9.940;2023-08-06T04:25:28;4.40;;;3.93;;
54983;SDS011;40884;53.562;9.940;2023-08-06T04:26:28;4.87;;;3.67;;
54983;SDS011;40884;53.562;9.940;2023-08-06T04:27:28;7.47;;;3.93;;
54983;SDS011;40884;53.562;9.940;2023-08-06T04:28:28;5.80;;;4.07;;
54983;SDS011;40884;53.562;9.940;2023-08-06T04:29:28;5.77;;;4.00;;
54983;SDS011;40884;53.562;9.940;2023-08-06T04:30:29;5.27;;;3.70;;
54983;SDS011;40884;53.562;9.940;2023-08-06T04:31:29;4.83;;;4.10;;
54983;SDS011;40884;53.562;9.940;2023-08-06T04:32:30;7.93;;;4.03;;
54983;SDS011;40884;53.562;9.940;2023-08-06T04:33:30;5.13;;;3.83;;
54983;SDS011;40884;53.562;9.940;2023-08-06T04:34:33;4.23;;;3.43;;
54983;SDS011;40884;53.562;9.940;2023-08-06T04:35:33;5.47;;;3.73;;
54983;SDS011;40884;53.562;9.940;2023-08-06T04:36:34;6.50;;;4.20;;
54983;SDS011;40884;53.562;9.940;2023-08-06T04:37:34;5.77;;;4.10;;
54983;SDS011;40884;53.562;9.940;2023-08-06T04:38:34;6.07;;;4.13;;
54983;SDS011;40884;53.562;9.940;2023-08-06T04:39:35;6.73;;;3.77;;
54983;SDS011;40884;53.562;9.940;2023-08-06T04:40:35;5.10;;;4.00;;
54983;SDS011;40884;53.562;9.940;2023-08-06T04:41:36;5.60;;;3.70;;
54983;SDS011;40884;53.562;9.940;2023-08-06T04:42:36;5.27;;;3.93;;
54983;SDS011;40884;53.562;9.940;2023-08-06T04:43:36;4.67;;;3.93;;
54983;SDS011;40884;53.562;9.940;2023-08-06T04:44:36;6.40;;;4.17;;
54983;SDS011;40884;53.562;9.940;2023-08-06T04:45:36;5.30;;;3.77;;
54983;SDS011;40884;53.562;9.940;2023-08-06T04:46:36;6.37;;;4.07;;
54983;SDS011;40884;53.562;9.940;2023-08-06T04:47:39;3.67;;;3.27;;
54983;SDS011;40884;53.562;9.940;2023-08-06T04:48:39;6.03;;;3.97;;
54983;SDS011;40884;53.562;9.940;2023-08-06T04:49:39;4.67;;;4.17;;
54983;SDS011;40884;53.562;9.940;2023-08-06T04:50:43;4.97;;;3.97;;
54983;SDS011;40884;53.562;9.940;2023-08-06T04:51:43;6.27;;;4.03;;
54983;SDS011;40884;53.562;9.940;2023-08-06T04:52:43;5.30;;;4.10;;
54983;SDS011;40884;53.562;9.940;2023-08-06T04:53:43;4.70;;;3.70;;
54983;SDS011;40884;53.562;9.940;2023-08-06T04:54:43;5.47;;;4.07;;
54983;SDS011;40884;53.562;9.940;2023-08-06T04:55:43;5.43;;;3.83;;
54983;SDS011;40884;53.562;9.940;2023-08-06T04:56:44;4.67;;;4.13;;
54983;SDS011;40884;53.562;9.940;2023-08-06T04:57:44;7.27;;;3.83;;
54983;SDS011;40884;53.562;9.940;2023-08-06T04:58:44;6.23;;;3.83;;
54983;SDS011;40884;53.562;9.940;2023-08-06T04:59:44;4.43;;;3.53;;
54983;SDS011;40884;53.562;9.940;2023-08-06T05:00:44;4.43;;;3.83;;
54983;SDS011;40884;53.562;9.940;2023-08-06T05:01:44;5.20;;;3.90;;
54983;SDS011;40884;53.562;9.940;2023-08-06T05:02:45;6.83;;;3.70;;
54983;SDS011;40884;53.562;9.940;2023-08-06T05:03:46;7.40;;;4.00;;
54983;SDS011;40884;53.562;9.940;2023-08-06T05:04:46;5.10;;;4.00;;
54983;SDS011;40884;53.562;9.940;2023-08-06T05:05:47;7.87;;;4.00;;
54983;SDS011;40884;53.562;9.940;2023-08-06T05:06:47;5.67;;;4.13;;
54983;SDS011;40884;53.562;9.940;2023-08-06T05:07:48;6.43;;;3.80;;
54983;SDS011;40884;53.562;9.940;2023-08-06T05:08:48;4.93;;;3.97;;
54983;SDS011;40884;53.562;9.940;2023-08-06T05:09:48;6.33;;;3.93;;
54983;SDS011;40884;53.562;9.940;2023-08-06T05:10:48;4.30;;;3.90;;
54983;SDS011;40884;53.562;9.940;2023-08-06T05:11:49;6.37;;;4.00;;
54983;SDS011;40884;53.562;9.940;2023-08-06T05:12:49;5.00;;;3.93;;
54983;SDS011;40884;53.562;9.940;2023-08-06T05:13:49;6.43;;;4.30;;
54983;SDS011;40884;53.562;9.940;2023-08-06T05:14:49;7.30;;;4.40;;
54983;SDS011;40884;53.562;9.940;2023-08-06T05:15:49;4.87;;;4.00;;
54983;SDS011;40884;53.562;9.940;2023-08-06T05:16:49;4.40;;;4.00;;
54983;SDS011;40884;53.562;9.940;2023-08-06T05:17:49;5.37;;;4.17;;
54983;SDS011;40884;53.562;9.940;2023-08-06T05:18:49;5.13;;;4.00;;
54983;SDS011;40884;53.562;9.940;2023-08-06T05:19:50;5.10;;;4.07;;
54983;SDS011;40884;53.562;9.940;2023-08-06T05:20:50;6.77;;;4.30;;
54983;SDS011;40884;53.562;9.940;2023-08-06T05:21:50;5.53;;;4.47;;
54983;SDS011;40884;53.562;9.940;2023-08-06T05:22:50;6.73;;;4.23;;
54983;SDS011;40884;53.562;9.940;2023-08-06T05:23:50;4.47;;;3.93;;
54983;SDS011;40884;53.562;9.940;2023-08-06T05:24:50;4.47;;;4.03;;
54983;SDS011;40884;53.562;9.940;2023-08-06T05:25:50;4.77;;;4.10;;
54983;SDS011;40884;53.562;9.940;2023-08-06T05:26:50;4.87;;;3.73;;
54983;SDS011;40884;53.562;9.940;2023-08-06T05:27:50;6.90;;;4.40;;
54983;SDS011;40884;53.562;9.940;2023-08-06T05:28:51;4.23;;;3.57;;
54983;SDS011;40884;53.562;9.940;2023-08-06T05:29:54;6.93;;;4.53;;
54983;SDS011;40884;53.562;9.940;2023-08-06T05:30:54;5.90;;;4.10;;
54983;SDS011;40884;53.562;9.940;2023-08-06T05:31:54;6.27;;;4.20;;
54983;SDS011;40884;53.562;9.940;2023-08-06T05:32:54;9.20;;;4.87;;
54983;SDS011;40884;53.562;9.940;2023-08-06T05:33:55;4.77;;;4.20;;
54983;SDS011;40884;53.562;9.940;2023-08-06T05:34:55;8.37;;;4.80;;
54983;SDS011;40884;53.562;9.940;2023-08-06T05:35:55;6.60;;;4.07;;
54983;SDS011;40884;53.562;9.940;2023-08-06T05:36:55;5.63;;;4.00;;
54983;SDS011;40884;53.562;9.940;2023-08-06T05:37:55;5.07;;;4.23;;
54983;SDS011;40884;53.562;9.940;2023-08-06T05:38:55;5.57;;;4.30;;
54983;SDS011;40884;53.562;9.940;2023-08-06T05:39:55;6.50;;;4.37;;
54983;SDS011;40884;53.562;9.940;2023-08-06T05:40:55;6.20;;;4.70;;
54983;SDS011;40884;53.562;9.940;2023-08-06T05:41:56;6.13;;;4.70;;
54983;SDS011;40884;53.562;9.940;2023-08-06T05:42:56;7.67;;;4.40;;
54983;SDS011;40884;53.562;9.940;2023-08-06T05:43:56;6.77;;;4.43;;
54983;SDS011;40884;53.562;9.940;2023-08-06T05:44:56;5.83;;;4.33;;
54983;SDS011;40884;53.562;9.940;2023-08-06T05:45:56;6.13;;;4.80;;
54983;SDS011;40884;53.562;9.940;2023-08-06T05:46:56;5.37;;;4.47;;
54983;SDS011;40884;53.562;9.940;2023-08-06T05:47:56;4.80;;;4.37;;
54983;SDS011;40884;53.562;9.940;2023-08-06T05:48:56;5.10;;;4.30;;
54983;SDS011;40884;53.562;9.940;2023-08-06T05:49:56;6.73;;;4.43;;
54983;SDS011;40884;53.562;9.940;2023-08-06T05:50:57;4.83;;;4.03;;
54983;SDS011;40884;53.562;9.940;2023-08-06T05:51:57;5.43;;;4.37;;
54983;SDS011;40884;53.562;9.940;2023-08-06T05:52:57;5.40;;;4.03;;
54983;SDS011;40884;53.562;9.940;2023-08-06T05:53:57;5.80;;;4.20;;
54983;SDS011;40884;53.562;9.940;2023-08-06T05:54:57;6.63;;;4.30;;
54983;SDS011;40884;53.562;9.940;2023-08-06T05:55:57;8.10;;;4.70;;
54983;SDS011;40884;53.562;9.940;2023-08-06T05:56:58;7.57;;;4.93;;
54983;SDS011;40884;53.562;9.940;2023-08-06T05:57:58;6.33;;;4.20;;
54983;SDS011;40884;53.562;9.940;2023-08-06T05:58:58;8.27;;;4.33;;
54983;SDS011;40884;53.562;9.940;2023-08-06T05:59:58;6.07;;;4.30;;
54983;SDS011;40884;53.562;9.940;2023-08-06T06:00:58;5.33;;;4.00;;
54983;SDS011;40884;53.562;9.940;2023-08-06T06:01:58;5.67;;;4.53;;
54983;SDS011;40884;53.562;9.940;2023-08-06T06:02:58;6.60;;;4.33;;
54983;SDS011;40884;53.562;9.940;2023-08-06T06:03:58;5.67;;;3.97;;
54983;SDS011;40884;53.562;9.940;2023-08-06T06:04:59;5.70;;;4.87;;
54983;SDS011;40884;53.562;9.940;2023-08-06T06:06:00;6.70;;;4.47;;
54983;SDS011;40884;53.562;9.940;2023-08-06T06:07:00;7.20;;;5.07;;
54983;SDS011;40884;53.562;9.940;2023-08-06T06:08:00;7.27;;;4.80;;
54983;SDS011;40884;53.562;9.940;2023-08-06T06:09:01;6.27;;;4.50;;